createdAt,value
2022-12-05T00:07:14.569Z,12.13
2022-12-05T00:17:28.557Z,15.27
2022-12-05T00:27:30.512Z,14.53
2022-12-05T00:37:32.494Z,15.60
2022-12-05T00:47:37.566Z,16.23
2022-12-05T00:57:41.934Z,16.10
2022-12-05T01:07:44.476Z,16.30
2022-12-05T01:17:51.013Z,15.83
2022-12-05T01:27:53.199Z,14.17
2022-12-05T01:37:55.341Z,15.63
2022-12-05T01:47:57.672Z,12.07
2022-12-05T01:58:01.063Z,5.47
2022-12-05T02:08:06.200Z,16.70
2022-12-05T02:18:26.641Z,17.87
2022-12-05T02:28:43.767Z,16.23
2022-12-05T02:39:01.011Z,18.00
2022-12-05T02:49:07.330Z,12.70
2022-12-05T02:59:11.739Z,17.53
2022-12-05T03:09:22.800Z,11.30
2022-12-05T03:19:27.604Z,9.90
2022-12-05T03:29:34.281Z,14.57
2022-12-05T03:39:41.426Z,14.03
2022-12-05T03:49:46.542Z,13.80
2022-12-05T03:59:50.385Z,14.97
2022-12-05T04:09:56.747Z,14.77
2022-12-05T04:20:42.328Z,13.43
2022-12-05T04:30:50.402Z,11.93
2022-12-05T04:40:59.635Z,14.97
2022-12-05T04:51:02.226Z,14.77
2022-12-05T05:01:12.094Z,13.30
2022-12-05T05:11:19.954Z,13.60
2022-12-05T05:21:37.783Z,10.97
2022-12-05T05:31:45.688Z,13.07
2022-12-05T05:41:48.804Z,9.40
2022-12-05T05:51:53.088Z,10.47
2022-12-05T06:01:55.149Z,11.90
2022-12-05T06:11:59.806Z,12.73
2022-12-05T06:22:01.928Z,11.53
2022-12-05T06:32:04.468Z,12.03
2022-12-05T06:42:11.279Z,13.47
2022-12-05T06:52:16.038Z,14.00
2022-12-05T07:02:18.227Z,9.13
2022-12-05T07:12:22.552Z,18.30
2022-12-05T07:22:24.666Z,12.50
2022-12-05T07:32:26.893Z,11.80
2022-12-05T07:42:29.705Z,12.83
2022-12-05T07:52:32.109Z,13.87
2022-12-05T08:02:40.465Z,12.37
2022-12-05T08:12:50.963Z,12.60
2022-12-05T08:22:54.700Z,13.57
2022-12-05T08:32:59.291Z,13.40
2022-12-05T08:43:03.664Z,14.23
2022-12-05T08:53:12.749Z,12.20
2022-12-05T09:03:17.204Z,13.97
2022-12-05T09:13:21.930Z,14.27
2022-12-05T09:23:24.592Z,12.27
2022-12-05T09:33:34.422Z,14.47
2022-12-05T09:44:03.423Z,16.37
2022-12-05T10:05:02.838Z,15.07
2022-12-05T10:15:18.166Z,15.33
2022-12-05T10:25:24.697Z,14.97
2022-12-05T10:35:35.167Z,13.97
2022-12-05T10:45:44.370Z,16.47
2022-12-05T10:56:28.303Z,16.47
2022-12-05T11:06:17.695Z,15.80
2022-12-05T11:16:31.732Z,9.60
2022-12-05T11:26:37.609Z,15.07
2022-12-05T11:36:54.469Z,14.40
2022-12-05T11:47:17.245Z,16.07
2022-12-05T11:57:28.613Z,16.80
2022-12-05T12:07:54.065Z,17.10
2022-12-05T12:18:17.436Z,17.47
2022-12-05T12:28:52.175Z,15.63
2022-12-05T12:39:08.353Z,18.60
2022-12-05T12:49:50.146Z,16.17
2022-12-05T13:00:24.222Z,15.93
2022-12-05T13:10:40.822Z,16.90
2022-12-05T13:20:44.885Z,17.07
2022-12-05T13:31:08.763Z,18.33
2022-12-05T13:41:32.170Z,16.53
2022-12-05T13:51:41.053Z,15.73
2022-12-05T14:01:53.732Z,17.27
2022-12-05T14:12:21.332Z,19.50
2022-12-05T14:22:35.184Z,18.40
2022-12-05T14:32:44.378Z,18.33
2022-12-05T14:43:06.297Z,12.30
2022-12-05T14:53:20.749Z,17.50
2022-12-05T15:03:38.409Z,15.93
2022-12-05T15:13:43.285Z,20.83
2022-12-05T15:23:57.332Z,18.03
2022-12-05T15:34:06.146Z,18.50
2022-12-05T15:44:11.692Z,21.03
2022-12-05T15:54:18.296Z,20.63
2022-12-05T16:04:38.007Z,18.53
2022-12-05T16:25:15.573Z,21.50
2022-12-05T16:35:29.311Z,21.70
2022-12-05T16:45:42.446Z,20.50
2022-12-05T16:55:44.843Z,22.43
2022-12-05T17:05:49.305Z,18.50
2022-12-05T17:15:53.964Z,17.33
2022-12-05T17:25:57.847Z,19.83
2022-12-05T17:36:00.228Z,19.17
2022-12-05T17:46:03.427Z,18.33
2022-12-05T17:56:05.948Z,19.67
2022-12-05T18:06:08.325Z,19.53
2022-12-05T18:16:13.382Z,19.40
2022-12-05T18:26:15.540Z,21.47
2022-12-05T18:36:21.407Z,17.87
2022-12-05T18:46:27.011Z,19.57
2022-12-05T18:56:31.439Z,20.73
2022-12-05T19:06:43.417Z,19.93
2022-12-05T19:16:46.832Z,17.53
2022-12-05T19:26:49.066Z,19.20
2022-12-05T19:36:53.514Z,15.70
2022-12-05T19:46:55.559Z,19.23
2022-12-05T19:57:03.554Z,17.23
2022-12-05T20:07:08.008Z,17.30
2022-12-05T20:17:12.499Z,19.70
2022-12-05T20:27:17.221Z,18.17
2022-12-05T20:37:23.801Z,20.30
2022-12-05T20:47:28.404Z,24.93
2022-12-05T20:57:30.607Z,22.60
2022-12-05T21:07:32.715Z,21.93
2022-12-05T21:17:37.611Z,21.27
2022-12-05T21:27:41.118Z,23.10
2022-12-05T21:37:50.234Z,21.90
2022-12-05T21:47:54.907Z,24.07
2022-12-05T21:57:57.152Z,24.07
2022-12-05T22:08:06.246Z,22.73
2022-12-05T22:18:09.543Z,17.20
2022-12-05T22:28:14.198Z,19.13
2022-12-05T22:38:16.261Z,20.17
2022-12-05T22:48:24.565Z,23.20
2022-12-05T22:58:28.315Z,20.37
2022-12-05T23:08:30.363Z,20.13
2022-12-05T23:18:32.404Z,20.80
2022-12-05T23:28:37.202Z,18.83
2022-12-05T23:38:45.534Z,20.60
2022-12-05T23:48:48.302Z,19.03
2022-12-05T23:58:52.691Z,22.87
